createdAt,value
2017-11-07T00:00:30.664Z,6.36
2017-11-07T00:02:56.702Z,6.33
2017-11-07T00:05:22.790Z,6.35
2017-11-07T00:07:49.314Z,6.39
2017-11-07T00:10:15.414Z,6.36
2017-11-07T00:12:41.573Z,6.42
2017-11-07T00:15:07.659Z,6.38
2017-11-07T00:17:33.770Z,6.40
2017-11-07T00:20:00.286Z,6.40
2017-11-07T00:22:34.502Z,6.36
2017-11-07T00:25:01.046Z,6.36
2017-11-07T00:27:27.211Z,6.40
2017-11-07T00:29:53.301Z,6.40
2017-11-07T00:32:19.374Z,6.35
2017-11-07T00:34:45.446Z,6.34
2017-11-07T00:37:11.879Z,6.37
2017-11-07T00:39:37.950Z,6.34
2017-11-07T00:42:04.052Z,6.43
2017-11-07T00:44:30.150Z,6.43
2017-11-07T00:46:56.243Z,6.38
2017-11-07T00:49:22.733Z,6.37
2017-11-07T00:51:48.858Z,6.37
2017-11-07T00:54:14.923Z,6.39
2017-11-07T00:56:41.327Z,6.39
2017-11-07T00:59:07.473Z,6.42
2017-11-07T01:01:33.627Z,6.37
2017-11-07T01:04:00.030Z,6.36
2017-11-07T01:06:26.123Z,6.34
2017-11-07T01:08:52.200Z,6.33
2017-11-07T01:11:18.360Z,6.38
2017-11-07T01:13:44.438Z,6.36
2017-11-07T01:16:10.947Z,6.33
2017-11-07T01:18:37.018Z,6.36
2017-11-07T01:21:03.102Z,6.37
2017-11-07T01:23:29.131Z,6.34
2017-11-07T01:25:55.276Z,6.35
2017-11-07T01:28:21.895Z,6.34
2017-11-07T01:30:47.987Z,6.35
2017-11-07T01:33:14.047Z,6.34
2017-11-07T01:35:40.583Z,6.33
2017-11-07T01:38:06.691Z,6.32
2017-11-07T01:40:32.836Z,6.33
2017-11-07T01:42:58.947Z,6.32
2017-11-07T01:45:25.043Z,6.35
2017-11-07T01:47:51.629Z,6.34
2017-11-07T01:50:17.719Z,6.30
2017-11-07T01:52:43.845Z,6.30
2017-11-07T01:55:10.333Z,6.30
2017-11-07T01:57:36.461Z,6.30
2017-11-07T02:00:02.572Z,6.29
2017-11-07T02:02:28.662Z,6.30
2017-11-07T02:04:54.769Z,6.30
2017-11-07T02:07:21.220Z,6.32
2017-11-07T02:09:47.325Z,6.32
2017-11-07T02:12:13.459Z,6.33
2017-11-07T02:14:39.602Z,6.39
2017-11-07T02:17:05.740Z,6.31
2017-11-07T02:19:32.227Z,6.35
2017-11-07T02:21:58.277Z,6.36
2017-11-07T02:24:24.310Z,6.33
2017-11-07T02:26:50.336Z,6.32
2017-11-07T02:29:16.463Z,6.32
2017-11-07T02:31:43.011Z,6.32
2017-11-07T02:34:09.047Z,6.34
2017-11-07T02:36:35.112Z,6.31
2017-11-07T02:39:01.634Z,6.34
2017-11-07T02:41:27.792Z,6.35
2017-11-07T02:43:53.844Z,6.33
2017-11-07T02:46:20.289Z,6.37
2017-11-07T02:48:46.384Z,6.35
2017-11-07T02:51:12.461Z,6.37
2017-11-07T02:53:38.538Z,6.41
2017-11-07T02:56:04.616Z,6.35
2017-11-07T02:58:31.181Z,6.34
2017-11-07T03:00:57.298Z,6.38
2017-11-07T03:03:23.466Z,6.39
2017-11-07T03:05:49.565Z,6.39
2017-11-07T03:08:15.666Z,6.41
2017-11-07T03:10:42.246Z,6.43
2017-11-07T03:13:08.379Z,6.40
2017-11-07T03:15:34.428Z,6.39
2017-11-07T03:18:00.886Z,6.43
2017-11-07T03:20:26.990Z,6.41
2017-11-07T03:22:53.118Z,6.44
2017-11-07T03:25:19.237Z,6.39
2017-11-07T03:27:45.301Z,6.36
2017-11-07T03:30:11.720Z,6.43
2017-11-07T03:32:37.866Z,6.35
2017-11-07T03:35:03.998Z,6.37
2017-11-07T03:37:30.134Z,6.39
2017-11-07T03:39:56.259Z,6.41
2017-11-07T03:42:22.698Z,6.27
2017-11-07T03:44:48.843Z,6.35
2017-11-07T03:47:15.018Z,6.38
2017-11-07T03:49:41.123Z,6.36
2017-11-07T03:52:07.212Z,6.37
2017-11-07T03:54:33.752Z,6.39
2017-11-07T03:56:59.822Z,6.35
2017-11-07T03:59:25.905Z,6.40
2017-11-07T04:01:52.460Z,6.33
2017-11-07T04:04:18.557Z,6.36
2017-11-07T04:06:44.831Z,6.35
2017-11-07T04:09:10.966Z,6.42
2017-11-07T04:11:37.106Z,6.36
2017-11-07T04:14:03.205Z,6.43
2017-11-07T04:16:29.735Z,6.39
2017-11-07T04:18:55.814Z,6.42
2017-11-07T04:21:21.886Z,6.40
2017-11-07T04:23:48.430Z,6.44
2017-11-07T04:26:14.552Z,6.47
2017-11-07T04:28:40.605Z,6.40
2017-11-07T04:31:06.693Z,6.43
2017-11-07T04:33:32.750Z,6.44
2017-11-07T04:35:59.246Z,6.43
2017-11-07T04:38:25.323Z,6.50
2017-11-07T04:40:51.516Z,6.48
2017-11-07T04:43:17.621Z,6.52
2017-11-07T04:45:43.694Z,6.53
2017-11-07T04:48:10.206Z,6.49
2017-11-07T04:50:36.351Z,6.55
2017-11-07T04:53:02.371Z,6.54
2017-11-07T04:55:28.819Z,6.54
2017-11-07T04:57:54.871Z,6.50
2017-11-07T05:00:20.958Z,6.61
2017-11-07T05:02:47.396Z,6.59
2017-11-07T05:05:13.489Z,6.53
2017-11-07T05:07:39.512Z,6.54
2017-11-07T05:10:05.702Z,6.52
2017-11-07T05:12:31.853Z,6.51
2017-11-07T05:14:58.199Z,6.51
2017-11-07T05:17:24.286Z,6.54
2017-11-07T05:19:50.388Z,6.54
2017-11-07T05:22:16.791Z,6.56
2017-11-07T05:24:42.903Z,6.59
2017-11-07T05:27:08.933Z,6.58
2017-11-07T05:29:35.394Z,6.58
2017-11-07T05:32:01.490Z,6.64
2017-11-07T05:34:27.542Z,6.66
2017-11-07T05:36:53.655Z,6.59
2017-11-07T05:39:19.731Z,6.60
2017-11-07T05:41:46.165Z,6.64
2017-11-07T05:44:12.230Z,6.60
2017-11-07T05:46:38.315Z,6.60
2017-11-07T05:49:04.683Z,6.55
2017-11-07T05:51:30.764Z,6.55
2017-11-07T05:53:56.821Z,6.56
2017-11-07T05:56:22.969Z,6.58
2017-11-07T05:58:49.042Z,6.58
2017-11-07T06:01:15.570Z,6.54
2017-11-07T06:03:41.655Z,6.57
2017-11-07T06:06:07.733Z,6.60
2017-11-07T06:08:33.933Z,6.57
2017-11-07T06:11:00.015Z,6.58
2017-11-07T06:13:26.120Z,6.58
2017-11-07T06:15:52.238Z,6.59
2017-11-07T06:18:18.364Z,6.52
2017-11-07T06:20:44.558Z,6.61
2017-11-07T06:23:10.639Z,6.57
2017-11-07T06:25:36.718Z,6.58
2017-11-07T06:28:02.764Z,6.60
2017-11-07T06:30:28.819Z,6.62
2017-11-07T06:32:54.922Z,6.67
2017-11-07T06:35:21.014Z,6.64
2017-11-07T06:37:47.951Z,6.67
2017-11-07T06:40:14.442Z,6.68
2017-11-07T06:42:40.523Z,6.75
2017-11-07T06:45:06.682Z,6.76
2017-11-07T06:47:32.785Z,6.78
2017-11-07T06:49:58.798Z,6.78
2017-11-07T06:52:24.891Z,6.80
2017-11-07T06:54:50.966Z,6.83
2017-11-07T06:57:17.098Z,6.86
2017-11-07T06:59:43.226Z,6.92
2017-11-07T07:02:09.350Z,6.88
2017-11-07T07:04:35.420Z,6.87
2017-11-07T07:07:01.578Z,6.92
2017-11-07T07:09:27.654Z,6.93
2017-11-07T07:11:53.746Z,6.94
2017-11-07T07:14:19.829Z,6.96
2017-11-07T07:16:46.102Z,6.98
2017-11-07T07:19:12.178Z,6.98
2017-11-07T07:21:38.264Z,7.09
2017-11-07T07:24:04.408Z,7.08
2017-11-07T07:26:30.519Z,7.16
2017-11-07T07:28:56.615Z,7.14
2017-11-07T07:31:22.679Z,7.15
2017-11-07T07:33:48.803Z,7.22
2017-11-07T07:36:14.839Z,7.23
2017-11-07T07:38:40.959Z,7.23
2017-11-07T07:41:07.052Z,7.25
2017-11-07T07:43:33.183Z,7.24
2017-11-07T07:45:59.271Z,7.30
2017-11-07T07:48:25.358Z,7.27
2017-11-07T07:50:51.811Z,7.33
2017-11-07T07:53:17.882Z,7.31
2017-11-07T07:55:43.970Z,7.35
2017-11-07T07:58:10.061Z,7.36
2017-11-07T08:00:36.151Z,7.37
2017-11-07T08:03:02.238Z,7.48
2017-11-07T08:05:28.640Z,7.55
2017-11-07T08:07:54.711Z,7.48
2017-11-07T08:10:20.821Z,7.46
2017-11-07T08:12:46.973Z,7.47
2017-11-07T08:15:13.099Z,7.44
2017-11-07T08:17:39.311Z,7.43
2017-11-07T08:20:05.766Z,7.47
2017-11-07T08:22:31.820Z,7.60
2017-11-07T08:24:57.913Z,7.67
2017-11-07T08:27:23.983Z,7.70
2017-11-07T08:29:50.123Z,7.65
2017-11-07T08:32:16.219Z,7.59
2017-11-07T08:34:42.319Z,7.55
2017-11-07T08:37:08.455Z,7.66
2017-11-07T08:39:34.532Z,7.65
2017-11-07T08:42:00.694Z,7.61
2017-11-07T08:44:26.748Z,7.75
2017-11-07T08:46:52.815Z,7.88
2017-11-07T08:49:18.929Z,7.78
2017-11-07T08:51:45.065Z,7.74
2017-11-07T08:54:11.145Z,7.74
2017-11-07T08:56:37.287Z,7.74
2017-11-07T08:59:03.482Z,7.74
2017-11-07T09:01:29.615Z,7.78
2017-11-07T09:03:55.705Z,7.81
2017-11-07T09:06:21.804Z,7.75
2017-11-07T09:08:47.894Z,7.75
2017-11-07T09:11:13.958Z,7.77
2017-11-07T09:13:40.021Z,7.76
2017-11-07T09:16:06.082Z,7.80
2017-11-07T09:18:32.198Z,7.80
2017-11-07T09:20:58.305Z,7.62
2017-11-07T09:23:24.659Z,7.69
2017-11-07T09:25:50.747Z,7.69
2017-11-07T09:28:16.823Z,7.79
2017-11-07T09:30:42.965Z,7.74
2017-11-07T09:33:09.090Z,7.77
2017-11-07T09:35:35.211Z,7.65
2017-11-07T09:38:01.292Z,7.65
2017-11-07T09:40:27.373Z,7.70
2017-11-07T09:42:53.533Z,7.73
2017-11-07T09:45:19.673Z,7.71
2017-11-07T09:47:45.754Z,7.73
2017-11-07T09:50:11.931Z,7.70
2017-11-07T09:52:38.228Z,7.78
2017-11-07T09:55:04.292Z,7.49
2017-11-07T09:57:30.590Z,7.65
2017-11-07T09:59:56.674Z,7.66
2017-11-07T10:02:22.790Z,7.70
2017-11-07T10:04:49.029Z,7.71
2017-11-07T10:07:15.079Z,7.73
2017-11-07T10:09:41.154Z,7.77
2017-11-07T10:12:07.245Z,7.81
2017-11-07T10:14:33.335Z,7.86
2017-11-07T10:16:59.554Z,7.86
2017-11-07T10:19:25.646Z,7.89
2017-11-07T10:21:51.775Z,7.92
2017-11-07T10:24:17.893Z,7.80
2017-11-07T10:26:43.973Z,7.86
2017-11-07T10:29:10.126Z,7.83
2017-11-07T10:31:36.194Z,7.81
2017-11-07T10:34:02.304Z,7.94
2017-11-07T10:36:28.414Z,7.88
2017-11-07T10:38:54.559Z,7.86
2017-11-07T10:41:20.755Z,7.93
2017-11-07T10:43:46.902Z,7.91
2017-11-07T10:46:12.980Z,7.91
2017-11-07T10:48:39.199Z,7.96
2017-11-07T10:51:05.326Z,7.97
2017-11-07T10:53:31.388Z,7.98
2017-11-07T10:55:57.474Z,7.93
2017-11-07T10:58:23.673Z,8.03
2017-11-07T11:00:49.791Z,8.07
2017-11-07T11:03:15.894Z,8.04
2017-11-07T11:05:41.938Z,8.05
2017-11-07T11:08:08.081Z,8.20
2017-11-07T11:10:34.176Z,8.16
2017-11-07T11:13:00.298Z,8.13
2017-11-07T11:15:26.419Z,8.11
2017-11-07T11:17:52.523Z,8.19
2017-11-07T11:20:18.675Z,8.24
2017-11-07T11:22:44.776Z,8.47
2017-11-07T11:25:10.894Z,8.40
2017-11-07T11:27:36.998Z,8.39
2017-11-07T11:30:03.117Z,8.50
2017-11-07T11:32:29.210Z,8.56
2017-11-07T11:37:21.240Z,8.56
2017-11-07T11:39:47.315Z,8.51
2017-11-07T11:42:13.434Z,8.51
2017-11-07T11:44:39.597Z,8.43
2017-11-07T11:47:05.666Z,8.35
2017-11-07T11:49:31.902Z,8.36
2017-11-07T11:51:58.143Z,8.42
2017-11-07T11:54:24.243Z,8.53
2017-11-07T11:56:51.367Z,8.45
2017-11-07T11:59:17.458Z,8.40
2017-11-07T12:01:43.543Z,8.44
2017-11-07T12:04:09.662Z,8.41
2017-11-07T12:06:35.761Z,8.49
2017-11-07T12:09:01.909Z,8.54
2017-11-07T12:11:27.974Z,8.55
2017-11-07T12:13:54.087Z,8.54
2017-11-07T12:16:20.319Z,8.57
2017-11-07T12:18:46.449Z,8.67
2017-11-07T12:21:12.622Z,8.77
2017-11-07T12:23:38.759Z,8.57
2017-11-07T12:28:38.054Z,8.64
2017-11-07T12:31:04.165Z,8.55
2017-11-07T12:33:30.255Z,8.41
2017-11-07T12:35:56.354Z,8.51
2017-11-07T12:38:22.441Z,8.63
2017-11-07T12:40:48.583Z,8.63
2017-11-07T12:43:14.700Z,8.68
2017-11-07T12:45:40.778Z,8.73
2017-11-07T12:48:06.871Z,8.72
2017-11-07T12:50:45.165Z,8.70
2017-11-07T12:53:11.248Z,8.60
2017-11-07T12:55:37.331Z,8.63
2017-11-07T12:58:03.488Z,8.54
2017-11-07T13:00:29.582Z,8.48
2017-11-07T13:02:55.695Z,8.45
2017-11-07T13:05:21.850Z,8.51
2017-11-07T13:07:47.879Z,8.52
2017-11-07T13:10:13.975Z,8.61
2017-11-07T13:12:40.064Z,8.62
2017-11-07T13:15:06.178Z,8.58
2017-11-07T13:17:32.306Z,8.59
2017-11-07T13:19:58.423Z,8.54
2017-11-07T13:22:24.558Z,8.61
2017-11-07T13:24:50.619Z,8.67
2017-11-07T13:27:16.749Z,8.54
2017-11-07T13:29:42.865Z,8.54
2017-11-07T13:32:08.939Z,8.70
2017-11-07T13:34:35.032Z,8.62
2017-11-07T13:37:01.107Z,8.56
2017-11-07T13:39:27.194Z,8.55
2017-11-07T13:41:53.314Z,8.63
2017-11-07T13:44:19.454Z,8.69
2017-11-07T13:46:45.571Z,8.95
2017-11-07T13:49:11.647Z,8.91
2017-11-07T13:51:37.839Z,8.91
2017-11-07T13:54:04.065Z,8.92
2017-11-07T13:56:30.134Z,8.76
2017-11-07T13:58:56.247Z,8.86
2017-11-07T14:01:22.364Z,8.79
2017-11-07T14:03:48.540Z,8.83
2017-11-07T14:06:14.631Z,8.72
2017-11-07T14:08:40.706Z,8.49
2017-11-07T14:11:06.789Z,8.50
2017-11-07T14:13:32.883Z,8.51
2017-11-07T14:15:58.990Z,8.41
2017-11-07T14:18:25.024Z,8.49
2017-11-07T14:20:51.163Z,8.36
2017-11-07T14:23:17.257Z,8.39
2017-11-07T14:25:43.364Z,8.44
2017-11-07T14:28:09.533Z,8.42
2017-11-07T14:30:35.595Z,8.43
2017-11-07T14:33:01.704Z,8.38
2017-11-07T14:35:27.803Z,8.39
2017-11-07T14:37:53.878Z,8.35
2017-11-07T14:40:20.419Z,8.26
2017-11-07T14:42:46.507Z,8.35
2017-11-07T14:45:12.582Z,8.40
2017-11-07T14:47:38.699Z,8.36
2017-11-07T14:50:04.784Z,8.25
2017-11-07T14:52:30.911Z,8.28
2017-11-07T14:54:57.007Z,8.20
2017-11-07T14:57:23.102Z,8.23
2017-11-07T14:59:49.210Z,8.19
2017-11-07T15:02:16.225Z,8.18
2017-11-07T15:04:42.346Z,8.15
2017-11-07T15:07:08.490Z,8.16
2017-11-07T15:09:34.652Z,8.08
2017-11-07T15:12:00.758Z,8.08
2017-11-07T15:14:26.855Z,8.14
2017-11-07T15:16:52.956Z,8.08
2017-11-07T15:19:19.035Z,8.07
2017-11-07T15:21:45.113Z,8.05
2017-11-07T15:24:11.238Z,8.11
2017-11-07T15:26:37.347Z,8.08
2017-11-07T15:29:03.459Z,8.02
2017-11-07T15:31:29.530Z,8.04
2017-11-07T15:33:55.596Z,8.02
2017-11-07T15:36:21.725Z,7.99
2017-11-07T15:38:48.005Z,7.97
2017-11-07T15:41:14.124Z,8.05
2017-11-07T15:43:40.242Z,8.07
2017-11-07T15:46:06.392Z,7.98
2017-11-07T15:48:32.474Z,7.97
2017-11-07T15:50:58.621Z,7.95
2017-11-07T15:53:24.728Z,7.97
2017-11-07T15:55:50.885Z,7.90
2017-11-07T15:58:16.939Z,8.02
2017-11-07T16:00:43.047Z,7.90
2017-11-07T16:03:09.138Z,7.88
2017-11-07T16:05:35.180Z,7.90
2017-11-07T16:08:01.331Z,7.82
2017-11-07T16:10:27.351Z,7.78
2017-11-07T16:12:53.430Z,7.71
2017-11-07T16:15:19.515Z,7.63
2017-11-07T16:17:45.651Z,7.69
2017-11-07T16:20:11.757Z,7.64
2017-11-07T16:22:37.880Z,7.53
2017-11-07T16:25:04.303Z,7.52
2017-11-07T16:27:30.475Z,7.29
2017-11-07T16:29:56.706Z,7.33
2017-11-07T16:32:22.825Z,7.36
2017-11-07T16:34:48.992Z,7.40
2017-11-07T16:37:15.075Z,7.34
2017-11-07T16:39:41.228Z,7.28
2017-11-07T16:42:07.338Z,7.30
2017-11-07T16:44:33.439Z,7.41
2017-11-07T16:46:59.549Z,7.34
2017-11-07T16:49:25.615Z,7.41
2017-11-07T16:51:51.770Z,7.38
2017-11-07T16:54:17.885Z,7.34
2017-11-07T16:56:43.984Z,7.27
2017-11-07T16:59:10.102Z,7.29
2017-11-07T17:01:36.218Z,7.29
2017-11-07T17:04:02.343Z,7.22
2017-11-07T17:06:28.439Z,7.31
2017-11-07T17:08:54.519Z,7.29
2017-11-07T17:11:20.708Z,7.23
2017-11-07T17:13:46.831Z,7.23
2017-11-07T17:16:12.919Z,7.21
2017-11-07T17:18:39.019Z,7.22
2017-11-07T17:21:05.057Z,7.24
2017-11-07T17:23:31.284Z,7.17
2017-11-07T17:25:57.459Z,7.05
2017-11-07T17:28:23.551Z,7.07
2017-11-07T17:30:49.700Z,7.16
2017-11-07T17:33:15.750Z,7.10
2017-11-07T17:35:41.971Z,7.14
2017-11-07T17:38:08.191Z,7.13
2017-11-07T17:40:34.329Z,7.14
2017-11-07T17:43:00.426Z,7.22
2017-11-07T17:45:26.558Z,7.21
2017-11-07T17:47:52.640Z,7.23
2017-11-07T17:50:18.753Z,7.26
2017-11-07T17:52:44.934Z,7.24
2017-11-07T17:55:11.043Z,7.18
2017-11-07T17:57:37.142Z,7.18
2017-11-07T18:00:03.365Z,7.18
2017-11-07T18:02:29.526Z,7.19
2017-11-07T18:04:55.694Z,7.19
2017-11-07T18:07:21.829Z,7.21
2017-11-07T18:09:48.060Z,7.17
2017-11-07T18:12:14.196Z,7.12
2017-11-07T18:14:40.337Z,7.09
2017-11-07T18:17:06.491Z,7.09
2017-11-07T18:19:32.618Z,7.15
2017-11-07T18:21:58.718Z,7.14
2017-11-07T18:24:24.923Z,7.13
2017-11-07T18:26:50.987Z,7.14
2017-11-07T18:29:17.117Z,7.12
2017-11-07T18:31:43.241Z,7.16
2017-11-07T18:34:09.433Z,7.22
2017-11-07T18:36:35.860Z,7.25
2017-11-07T18:39:02.061Z,7.28
2017-11-07T18:41:28.245Z,7.29
2017-11-07T18:43:54.415Z,7.27
2017-11-07T18:46:20.630Z,7.29
2017-11-07T18:48:46.806Z,7.37
2017-11-07T18:51:13.036Z,7.38
2017-11-07T18:53:39.401Z,7.46
2017-11-07T18:56:05.625Z,7.50
2017-11-07T18:58:31.899Z,7.52
2017-11-07T19:00:58.123Z,7.55
2017-11-07T19:03:24.368Z,7.59
2017-11-07T19:05:50.599Z,7.55
2017-11-07T19:08:16.772Z,7.55
2017-11-07T19:10:42.926Z,7.52
2017-11-07T19:13:09.301Z,7.54
2017-11-07T19:15:35.804Z,7.49
2017-11-07T19:18:01.982Z,7.57
2017-11-07T19:20:28.191Z,7.54
2017-11-07T19:22:54.517Z,7.55
2017-11-07T19:25:20.730Z,7.54
2017-11-07T19:27:47.000Z,7.57
2017-11-07T19:30:13.326Z,7.53
2017-11-07T19:32:39.581Z,7.55
2017-11-07T19:35:05.793Z,7.56
2017-11-07T19:37:32.044Z,7.57
2017-11-07T19:39:58.374Z,7.46
2017-11-07T19:42:24.736Z,7.53
2017-11-07T19:44:51.030Z,7.48
2017-11-07T19:47:17.280Z,7.43
2017-11-07T19:49:43.471Z,7.42
2017-11-07T19:52:09.776Z,7.43
2017-11-07T19:54:36.451Z,7.46
2017-11-07T19:57:02.681Z,7.46
2017-11-07T19:59:28.932Z,7.43
2017-11-07T20:01:55.195Z,7.43
2017-11-07T20:04:21.492Z,7.43
2017-11-07T20:06:47.682Z,7.47
2017-11-07T20:09:13.951Z,7.47
2017-11-07T20:11:40.238Z,7.40
2017-11-07T20:14:06.604Z,7.48
2017-11-07T20:16:32.875Z,7.52
2017-11-07T20:18:59.094Z,7.56
2017-11-07T20:21:25.383Z,7.61
2017-11-07T20:23:51.657Z,7.63
2017-11-07T20:26:18.226Z,7.62
2017-11-07T20:28:44.407Z,7.60
2017-11-07T20:31:10.541Z,7.60
2017-11-07T20:33:36.807Z,7.74
2017-11-07T20:36:03.067Z,7.78
2017-11-07T20:38:29.353Z,7.75
2017-11-07T20:40:55.543Z,7.67
2017-11-07T20:43:21.675Z,7.67
2017-11-07T20:45:47.860Z,7.58
2017-11-07T20:48:14.247Z,7.63
2017-11-07T20:50:40.456Z,7.61
2017-11-07T20:53:06.666Z,7.55
2017-11-07T20:55:32.841Z,7.56
2017-11-07T20:57:59.043Z,7.46
2017-11-07T21:00:25.285Z,7.42
2017-11-07T21:02:51.464Z,7.46
2017-11-07T21:05:17.613Z,7.46
2017-11-07T21:07:43.732Z,7.46
2017-11-07T21:10:09.829Z,7.45
2017-11-07T21:12:35.954Z,7.44
2017-11-07T21:15:02.041Z,7.56
2017-11-07T21:17:28.174Z,7.59
2017-11-07T21:19:54.319Z,7.61
2017-11-07T21:22:20.471Z,7.48
2017-11-07T21:24:46.565Z,7.47
2017-11-07T21:27:12.783Z,7.57
2017-11-07T21:29:38.891Z,7.53
2017-11-07T21:32:05.020Z,7.53
2017-11-07T21:34:31.206Z,7.52
2017-11-07T21:36:57.650Z,7.51
2017-11-07T21:39:23.698Z,7.48
2017-11-07T21:41:49.823Z,7.46
2017-11-07T21:44:16.011Z,7.43
2017-11-07T21:46:42.090Z,7.33
2017-11-07T21:49:08.232Z,7.43
2017-11-07T21:51:34.310Z,7.41
2017-11-07T21:54:00.421Z,7.31
2017-11-07T21:56:26.590Z,7.32
2017-11-07T21:58:52.709Z,7.31
2017-11-07T22:01:18.862Z,7.22
2017-11-07T22:03:46.959Z,7.20
2017-11-07T22:06:13.074Z,7.14
2017-11-07T22:08:39.154Z,7.14
2017-11-07T22:11:05.255Z,7.09
2017-11-07T22:13:31.394Z,6.96
2017-11-07T22:15:57.590Z,6.97
2017-11-07T22:18:23.678Z,7.08
2017-11-07T22:20:52.780Z,7.13
2017-11-07T22:23:24.683Z,7.10
2017-11-07T22:25:50.772Z,7.10
2017-11-07T22:28:16.903Z,6.96
2017-11-07T22:30:42.951Z,6.88
2017-11-07T22:33:09.020Z,6.86
2017-11-07T22:35:35.108Z,6.79
2017-11-07T22:38:01.118Z,6.70
2017-11-07T22:40:27.218Z,6.75
2017-11-07T22:42:53.355Z,6.80
2017-11-07T22:45:19.457Z,6.77
2017-11-07T22:47:45.547Z,6.90
2017-11-07T22:50:11.633Z,6.83
2017-11-07T22:52:37.715Z,7.04
2017-11-07T22:55:03.922Z,7.14
2017-11-07T22:57:30.058Z,7.16
2017-11-07T22:59:56.124Z,7.20
2017-11-07T23:02:22.203Z,7.18
2017-11-07T23:04:48.388Z,7.13
2017-11-07T23:07:14.610Z,7.15
2017-11-07T23:09:40.707Z,7.10
2017-11-07T23:12:06.811Z,7.09
2017-11-07T23:14:34.874Z,7.08
2017-11-07T23:17:00.958Z,7.00
2017-11-07T23:19:27.108Z,6.93
2017-11-07T23:21:53.378Z,6.86
2017-11-07T23:24:19.444Z,6.85
2017-11-07T23:26:45.582Z,6.79
2017-11-07T23:29:11.662Z,6.80
2017-11-07T23:31:37.807Z,6.80
2017-11-07T23:34:03.899Z,6.82
2017-11-07T23:36:29.974Z,6.74
2017-11-07T23:38:56.103Z,6.76
2017-11-07T23:41:22.187Z,6.76
2017-11-07T23:43:48.299Z,6.73
2017-11-07T23:46:14.366Z,6.67
2017-11-07T23:48:40.423Z,6.70
2017-11-07T23:51:06.524Z,6.62
2017-11-07T23:53:32.606Z,6.62
2017-11-07T23:55:58.831Z,6.62
2017-11-07T23:58:24.936Z,6.59
